Maersk Lirquen — VRKB8 — position and weather

sailwx.info

Track history (hours):
 
Tides and Currents Weather Stations Pressure Air Temp Water Temp Dewpoint Dewpoint Depression Visibility Wind Speed Wind Dir Waves Ship Positions

Maersk Lirquen

Last reported at 2016-Jun-25 10:33 UTC. Time now 2016-Jun-25 10:40 UTC.
Position N 01°16' E 103°46'.

Length 300 m; draft 11.9 m.

Type: Cargo ship. MMSI: 477423500.

Date/timePositionNaut miles runAvg speedWind from/ knotsBaromVisibWave heightAir tempDewpointWater temp
2016-Jun-25 10:33N 01°16' E 103°46'1 1.3
2016-Jun-25 09:33N 01°15' E 103°47'8 7.8
2016-Jun-25 08:33N 01°14' E 103°54'1514.4
2016-Jun-25 07:31N 01°17' E 104°09'  
2016-Jun-22 06:00N 17°24' E 113°12'29014.8 120 / 101007.9 5.4 0.531.025.432.0
2016-Jun-21 10:21N 22°07' E 114°21'1312.1
2016-Jun-21 09:17N 22°13' E 114°09'7 9.2
2016-Jun-21 08:33N 22°20' E 114°07'1 0.8
2016-Jun-21 07:25N 22°20' E 114°07'0 0.0
2016-Jun-21 06:31N 22°20' E 114°07'0 0.0
2016-Jun-21 04:31N 22°20' E 114°07'0 0.0
2016-Jun-21 03:31N 22°20' E 114°07'0 0.0
2016-Jun-21 02:31N 22°20' E 114°07'0 0.0
2016-Jun-21 01:31N 22°20' E 114°07'0 0.0
2016-Jun-21 00:19N 22°20' E 114°07'0 0.0
2016-Jun-20 23:25N 22°20' E 114°07'0 0.0
2016-Jun-20 22:13N 22°20' E 114°07'1 1.2
2016-Jun-20 21:33N 22°20' E 114°07'15 7.6
2016-Jun-20 19:33N 22°08' E 114°18'1210.1
2016-Jun-20 18:22N 22°16' E 114°28'21 9.7
2016-Jun-20 16:11N 22°34' E 114°17'1 0.9
2016-Jun-20 15:27N 22°34' E 114°16'18 1.6
2016-Jun-20 04:33N 22°22' E 114°30'1211.9
2016-Jun-20 03:32N 22°11' E 114°26'2512.5
2016-Jun-20 01:32N 21°58' E 114°03'2110.7
2016-Jun-19 23:33N 22°14' E 113°49'1111.6
2016-Jun-19 22:33N 22°25' E 113°52'3 2.5
2016-Jun-19 21:31N 22°28' E 113°53'0 0.0
2016-Jun-19 14:31N 22°28' E 113°53'0 0.0
2016-Jun-19 13:31N 22°28' E 113°53'1 0.2
2016-Jun-19 09:34N 22°27' E 113°53'1110.8
2016-Jun-19 08:33N 22°17' E 113°48'169 4.7
2016-Jun-17 20:29N 22°49' E 116°48'1310.1
2016-Jun-17 19:11N 22°56' E 117°00'1610.0
2016-Jun-17 17:33N 23°05' E 117°15'72 9.0
2016-Jun-17 09:32N 23°51' E 118°16'8 8.3
2016-Jun-17 08:32N 23°56' E 118°23'8 8.2
2016-Jun-17 07:31N 24°01' E 118°30'12 8.2
2016-Jun-17 06:04N 24°09' E 118°40'564.5
2016-Jun-17 06:00N 24°06' E 118°36'1812.7 200 / 101008.0 5.4 0.530.027.329.0
2016-Jun-17 04:33N 24°18' E 118°51'9 9.3
2016-Jun-17 03:33N 24°24' E 118°59'9 9.4
2016-Jun-17 02:33N 24°30' E 119°07'4 7.8
2016-Jun-17 02:00N 24°30' E 119°12'714.7 230 / 181008.8 5.4 0.530.027.330.0
2016-Jun-17 01:33N 24°36' E 119°15'9 8.8
2016-Jun-17 00:33N 24°42' E 119°22'916.8
2016-Jun-17 00:00N 24°48' E 119°30'193 7.7 210 / 191008.0 5.4 1.028.027.327.0
2016-Jun-15 23:00N 27°24' E 121°36'   230 / 251002.6 5.4 2.026.525.825.0
Track history (hours):
 
Tides and Currents Weather Stations Pressure Air Temp Water Temp Dewpoint Dewpoint Depression Visibility Wind Speed Wind Dir Waves Ship Positions

Maersk Lirquen

Last reported at 2016-Jun-25 10:33 UTC. Time now 2016-Jun-25 10:40 UTC.
Position N 01°16' E 103°46'.

Length 300 m; draft 11.9 m.

Type: Cargo ship. MMSI: 477423500.

Date/timePositionNaut miles runAvg speedWind from/ knotsBaromVisibWave heightAir tempDewpointWater temp
2016-Jun-25 10:33N 01°16' E 103°46'1 1.3
2016-Jun-25 09:33N 01°15' E 103°47'8 7.8
2016-Jun-25 08:33N 01°14' E 103°54'1514.4
2016-Jun-25 07:31N 01°17' E 104°09'  
2016-Jun-22 06:00N 17°24' E 113°12'29014.8 120 / 101007.9 5.4 0.531.025.432.0
2016-Jun-21 10:21N 22°07' E 114°21'1312.1
2016-Jun-21 09:17N 22°13' E 114°09'7 9.2
2016-Jun-21 08:33N 22°20' E 114°07'1 0.8
2016-Jun-21 07:25N 22°20' E 114°07'0 0.0
2016-Jun-21 06:31N 22°20' E 114°07'0 0.0
2016-Jun-21 04:31N 22°20' E 114°07'0 0.0
2016-Jun-21 03:31N 22°20' E 114°07'0 0.0
2016-Jun-21 02:31N 22°20' E 114°07'0 0.0
2016-Jun-21 01:31N 22°20' E 114°07'0 0.0
2016-Jun-21 00:19N 22°20' E 114°07'0 0.0
2016-Jun-20 23:25N 22°20' E 114°07'0 0.0
2016-Jun-20 22:13N 22°20' E 114°07'1 1.2
2016-Jun-20 21:33N 22°20' E 114°07'15 7.6
2016-Jun-20 19:33N 22°08' E 114°18'1210.1
2016-Jun-20 18:22N 22°16' E 114°28'21 9.7
2016-Jun-20 16:11N 22°34' E 114°17'1 0.9
2016-Jun-20 15:27N 22°34' E 114°16'18 1.6
2016-Jun-20 04:33N 22°22' E 114°30'1211.9
2016-Jun-20 03:32N 22°11' E 114°26'2512.5
2016-Jun-20 01:32N 21°58' E 114°03'2110.7
2016-Jun-19 23:33N 22°14' E 113°49'1111.6
2016-Jun-19 22:33N 22°25' E 113°52'3 2.5
2016-Jun-19 21:31N 22°28' E 113°53'0 0.0
2016-Jun-19 14:31N 22°28' E 113°53'0 0.0
2016-Jun-19 13:31N 22°28' E 113°53'1 0.2
2016-Jun-19 09:34N 22°27' E 113°53'1110.8
2016-Jun-19 08:33N 22°17' E 113°48'169 4.7
2016-Jun-17 20:29N 22°49' E 116°48'1310.1
2016-Jun-17 19:11N 22°56' E 117°00'1610.0
2016-Jun-17 17:33N 23°05' E 117°15'72 9.0
2016-Jun-17 09:32N 23°51' E 118°16'8 8.3
2016-Jun-17 08:32N 23°56' E 118°23'8 8.2
2016-Jun-17 07:31N 24°01' E 118°30'12 8.2
2016-Jun-17 06:04N 24°09' E 118°40'564.5
2016-Jun-17 06:00N 24°06' E 118°36'1812.7 200 / 101008.0 5.4 0.530.027.329.0
2016-Jun-17 04:33N 24°18' E 118°51'9 9.3
2016-Jun-17 03:33N 24°24' E 118°59'9 9.4
2016-Jun-17 02:33N 24°30' E 119°07'4 7.8
2016-Jun-17 02:00N 24°30' E 119°12'714.7 230 / 181008.8 5.4 0.530.027.330.0
2016-Jun-17 01:33N 24°36' E 119°15'9 8.8
2016-Jun-17 00:33N 24°42' E 119°22'916.8
2016-Jun-17 00:00N 24°48' E 119°30'193 7.7 210 / 191008.0 5.4 1.028.027.327.0
2016-Jun-15 23:00N 27°24' E 121°36'   230 / 251002.6 5.4 2.026.525.825.0

Dump ship's entire track history